Time,TemperatureF,DewpointF,PressureIn,WindDirection,WindDirectionDegrees,WindSpeedMPH,WindSpeedGustMPH,Humidity,HourlyPrecipIn,Conditions,Clouds,dailyrainin,SolarRadiationWatts/m^2,SoftwareType,DateUTC
2013-03-12 00:00:00,37.9,33.8,29.64,SW,236,13.0,20.0,85,0.00,RA,,0.00,0.0,WeatherDisplay:10.37,2013-03-12 04:00:00,
2013-03-12 00:05:00,37.7,33.9,29.64,WSW,242,19.0,19.0,86,0.00,RA,,0.00,0.0,WeatherDisplay:10.37,2013-03-12 04:05:00,
2013-03-12 00:10:00,37.5,34.0,29.64,SW,226,17.0,17.0,87,0.00,CLR,,0.00,0.0,WeatherDisplay:10.37,2013-03-12 04:10:00,
2013-03-12 00:15:00,37.4,33.9,29.64,SSW,211,16.1,16.1,87,0.00,CLR,,0.00,0.0,WeatherDisplay:10.37,2013-03-12 04:15:00,
2013-03-12 00:20:00,37.4,33.6,29.64,SW,229,17.3,17.3,86,0.00,CLR,,0.00,0.0,WeatherDisplay:10.37,2013-03-12 04:20:00,
2013-03-12 00:25:00,37.5,33.7,29.64,WSW,242,19.6,19.6,86,0.00,CLR,,0.00,0.0,WeatherDisplay:10.37,2013-03-12 04:25:00,
2013-03-12 00:30:00,37.5,33.7,29.65,SSW,212,20.7,20.7,86,0.00,CLR,,0.00,0.0,WeatherDisplay:10.37,2013-03-12 04:30:00,
2013-03-12 00:35:00,37.5,33.7,29.65,SW,219,19.6,19.6,86,0.00,CLR,,0.00,0.0,WeatherDisplay:10.37,2013-03-12 04:35:00,
2013-03-12 00:40:00,37.5,33.4,29.65,SW,233,10.0,10.0,85,0.00,CLR,,0.00,0.0,WeatherDisplay:10.37,2013-03-12 04:40:00,
2013-03-12 00:45:00,37.5,33.4,29.66,WSW,238,12.7,12.7,85,0.00,CLR,,0.00,0.0,WeatherDisplay:10.37,2013-03-12 04:45:00,
2013-03-12 00:50:00,37.4,33.6,29.66,WSW,251,10.4,10.4,86,0.00,CLR,,0.00,0.0,WeatherDisplay:10.37,2013-03-12 04:50:00,
2013-03-12 00:55:00,37.3,33.5,29.66,WSW,244,16.1,16.1,86,0.00,CLR,,0.00,0.0,WeatherDisplay:10.37,2013-03-12 04:55:00,
2013-03-12 01:00:00,37.3,33.5,29.66,WSW,250,18.4,18.4,86,0.00,CLR,,0.00,0.0,WeatherDisplay:10.37,2013-03-12 05:00:00,
2013-03-12 01:05:00,37.3,33.2,29.65,WSW,251,16.1,16.1,85,0.00,CLR,,0.00,0.0,WeatherDisplay:10.37,2013-03-12 05:05:00,
2013-03-12 01:10:00,37.2,33.1,29.65,SW,223,11.5,11.5,85,0.00,CLR,,0.00,0.0,WeatherDisplay:10.37,2013-03-12 05:10:00,
2013-03-12 01:15:00,37.2,33.1,29.65,West,265,17.3,17.3,85,0.00,CLR,,0.00,0.0,WeatherDisplay:10.37,2013-03-12 05:15:00,
2013-03-12 01:20:00,37.1,33.0,29.66,SW,215,11.5,11.5,85,0.00,CLR,,0.00,0.0,WeatherDisplay:10.37,2013-03-12 05:20:00,
2013-03-12 01:25:00,37.0,33.2,29.66,SW,236,8.1,8.1,86,0.00,CLR,,0.00,0.0,WeatherDisplay:10.37,2013-03-12 05:25:00,
2013-03-12 01:30:00,36.8,33.0,29.66,WSW,250,11.5,11.5,86,0.00,CLR,,0.00,0.0,WeatherDisplay:10.37,2013-03-12 05:30:00,
2013-03-12 01:35:00,36.7,33.2,29.66,WSW,243,10.0,10.0,87,0.00,CLR,,0.00,0.0,WeatherDisplay:10.37,2013-03-12 05:35:00,
2013-03-12 01:40:00,36.6,33.4,29.67,West,259,11.5,11.5,88,0.00,CLR,,0.00,0.0,WeatherDisplay:10.37,2013-03-12 05:40:00,
2013-03-12 01:45:00,36.4,33.5,29.67,SW,234,15.0,15.0,89,0.00,CLR,,0.00,0.0,WeatherDisplay:10.37,2013-03-12 05:45:00,
2013-03-12 01:50:00,36.4,33.2,29.67,SW,228,12.7,12.7,88,0.00,CLR,,0.00,0.0,WeatherDisplay:10.37,2013-03-12 05:50:00,
2013-03-12 01:55:00,36.4,33.2,29.67,SW,216,18.4,18.4,88,0.00,CLR,,0.00,0.0,WeatherDisplay:10.37,2013-03-12 05:55:00,
2013-03-12 02:00:00,36.4,33.2,29.67,WSW,244,10.0,10.0,88,0.00,CLR,,0.00,0.0,WeatherDisplay:10.37,2013-03-12 06:00:00,
2013-03-12 02:05:00,36.3,33.1,29.68,West,263,8.1,8.1,88,0.00,CLR,,0.00,0.0,WeatherDisplay:10.37,2013-03-12 06:05:00,
2013-03-12 02:10:00,36.2,33.0,29.68,SW,229,14.0,14.0,88,0.00,CLR,,0.00,0.0,WeatherDisplay:10.37,2013-03-12 06:10:00,
2013-03-12 02:15:00,36.0,33.1,29.68,West,281,18.4,18.4,89,0.00,CLR,,0.00,0.0,WeatherDisplay:10.37,2013-03-12 06:15:00,
2013-03-12 02:20:00,35.3,32.7,29.68,WSW,250,15.0,15.0,90,0.00,CLR,,0.00,0.0,WeatherDisplay:10.37,2013-03-12 06:20:00,
2013-03-12 02:25:00,35.0,32.6,29.68,West,259,15.0,15.0,91,0.00,CLR,,0.00,0.0,WeatherDisplay:10.37,2013-03-12 06:25:00,
2013-03-12 02:30:00,35.0,32.6,29.69,WSW,252,15.0,15.0,91,0.00,CLR,,0.00,0.0,WeatherDisplay:10.37,2013-03-12 06:30:00,
2013-03-12 02:35:00,34.9,32.8,29.69,WSW,243,12.0,12.0,92,0.00,CLR,,0.00,0.0,WeatherDisplay:10.37,2013-03-12 06:35:00,
2013-03-12 02:40:00,35.0,32.9,29.69,WSW,244,11.5,11.5,92,0.00,CLR,,0.00,0.0,WeatherDisplay:10.37,2013-03-12 06:40:00,
2013-03-12 02:45:00,35.0,32.6,29.69,West,263,13.0,13.0,91,0.00,CLR,,0.00,0.0,WeatherDisplay:10.37,2013-03-12 06:45:00,
2013-03-12 02:50:00,35.2,32.8,29.69,WSW,238,15.0,15.0,91,0.00,CLR,,0.00,0.0,WeatherDisplay:10.37,2013-03-12 06:50:00,
2013-03-12 02:55:00,35.4,32.8,29.69,West,267,13.8,13.8,90,0.00,CLR,,0.00,0.0,WeatherDisplay:10.37,2013-03-12 06:55:00,
2013-03-12 03:00:00,35.5,32.6,29.69,West,272,11.5,11.5,89,0.00,CLR,,0.00,0.0,WeatherDisplay:10.37,2013-03-12 07:00:00,
2013-03-12 03:05:00,35.6,32.4,29.70,SSW,206,12.7,12.7,88,0.00,CLR,,0.00,0.0,WeatherDisplay:10.37,2013-03-12 07:05:00,
2013-03-12 03:10:00,35.7,32.5,29.70,WSW,257,18.4,18.4,88,0.00,CLR,,0.00,0.0,WeatherDisplay:10.37,2013-03-12 07:10:00,
2013-03-12 03:15:00,35.7,32.2,29.70,SW,219,11.5,11.5,87,0.00,CLR,,0.00,0.0,WeatherDisplay:10.37,2013-03-12 07:15:00,
2013-03-12 03:20:00,35.7,32.2,29.70,SSW,196,11.5,11.5,87,0.00,CLR,,0.00,0.0,WeatherDisplay:10.37,2013-03-12 07:20:00,
2013-03-12 03:25:00,35.7,32.2,29.70,SW,227,12.7,12.7,87,0.00,CLR,,0.00,0.0,WeatherDisplay:10.37,2013-03-12 07:25:00,
2013-03-12 03:30:00,35.7,32.2,29.70,SW,221,17.3,17.3,87,0.00,CLR,,0.00,0.0,WeatherDisplay:10.37,2013-03-12 07:30:00,
2013-03-12 03:35:00,35.6,32.1,29.69,WSW,242,11.5,11.5,87,0.00,CLR,,0.00,0.0,WeatherDisplay:10.37,2013-03-12 07:35:00,
2013-03-12 03:40:00,35.6,32.4,29.69,WSW,241,13.8,13.8,88,0.00,CLR,,0.00,0.0,WeatherDisplay:10.37,2013-03-12 07:40:00,
2013-03-12 03:45:00,35.5,32.3,29.69,SSW,203,13.8,13.8,88,0.00,CLR,,0.00,0.0,WeatherDisplay:10.37,2013-03-12 07:45:00,
2013-03-12 03:50:00,35.4,32.2,29.69,SW,217,17.3,17.3,88,0.00,CLR,,0.00,0.0,WeatherDisplay:10.37,2013-03-12 07:50:00,
2013-03-12 03:55:00,35.4,32.2,29.70,SW,216,13.0,13.0,88,0.00,CLR,,0.00,0.0,WeatherDisplay:10.37,2013-03-12 07:55:00,
2013-03-12 04:00:00,35.4,32.5,29.70,SW,232,17.0,17.0,89,0.00,CLR,,0.00,0.0,WeatherDisplay:10.37,2013-03-12 08:00:00,
2013-03-12 04:05:00,35.4,32.5,29.70,WSW,250,16.1,16.1,89,0.00,CLR,,0.00,0.0,WeatherDisplay:10.37,2013-03-12 08:05:00,
2013-03-12 04:10:00,35.3,32.4,29.70,WSW,250,13.8,13.8,89,0.00,CLR,,0.00,0.0,WeatherDisplay:10.37,2013-03-12 08:10:00,
2013-03-12 04:15:00,35.3,32.1,29.70,WSW,248,20.7,20.7,88,0.00,CLR,,0.00,0.0,WeatherDisplay:10.37,2013-03-12 08:15:00,
2013-03-12 04:20:00,35.3,32.1,29.70,SW,234,20.7,20.7,88,0.00,CLR,,0.00,0.0,WeatherDisplay:10.37,2013-03-12 08:20:00,
2013-03-12 04:25:00,35.3,32.1,29.70,SSW,204,13.8,13.8,88,0.00,CLR,,0.00,0.0,WeatherDisplay:10.37,2013-03-12 08:25:00,
2013-03-12 04:30:00,35.3,32.1,29.70,SSW,192,11.5,11.5,88,0.00,CLR,,0.00,0.0,WeatherDisplay:10.37,2013-03-12 08:30:00,
2013-03-12 04:35:00,35.3,32.1,29.70,South,185,12.0,12.0,88,0.00,CLR,,0.00,0.0,WeatherDisplay:10.37,2013-03-12 08:35:00,
2013-03-12 04:40:00,35.2,32.0,29.70,SSW,205,15.0,15.0,88,0.00,CLR,,0.00,0.0,WeatherDisplay:10.37,2013-03-12 08:40:00,
2013-03-12 04:45:00,35.1,31.9,29.70,SW,224,9.2,9.2,88,0.00,CLR,,0.00,0.0,WeatherDisplay:10.37,2013-03-12 08:45:00,
2013-03-12 04:50:00,35.2,32.0,29.70,WSW,240,16.1,16.1,88,0.00,CLR,,0.00,0.0,WeatherDisplay:10.37,2013-03-12 08:50:00,
2013-03-12 04:55:00,35.2,32.0,29.70,WSW,243,17.3,17.3,88,0.00,CLR,,0.00,0.0,WeatherDisplay:10.37,2013-03-12 08:55:00,
2013-03-12 05:00:00,35.2,31.7,29.70,SW,222,13.8,13.8,87,0.00,CLR,,0.00,0.0,WeatherDisplay:10.37,2013-03-12 09:00:00,
2013-03-12 05:05:00,35.2,31.7,29.71,SW,230,11.5,11.5,87,0.00,CLR,,0.00,0.0,WeatherDisplay:10.37,2013-03-12 09:05:00,
2013-03-12 05:10:00,35.2,31.7,29.70,WSW,243,11.5,11.5,87,0.00,CLR,,0.00,0.0,WeatherDisplay:10.37,2013-03-12 09:10:00,
2013-03-12 05:15:00,35.2,31.7,29.70,SW,217,12.7,12.7,87,0.00,CLR,,0.00,0.0,WeatherDisplay:10.37,2013-03-12 09:15:00,
2013-03-12 05:20:00,35.2,31.7,29.71,SSW,207,11.5,11.5,87,0.00,CLR,,0.00,0.0,WeatherDisplay:10.37,2013-03-12 09:20:00,
2013-03-12 05:25:00,35.2,31.7,29.71,WSW,240,12.7,12.7,87,0.00,CLR,,0.00,0.0,WeatherDisplay:10.37,2013-03-12 09:25:00,
2013-03-12 05:30:00,35.2,31.7,29.71,WSW,240,11.5,11.5,87,0.00,CLR,,0.00,0.0,WeatherDisplay:10.37,2013-03-12 09:30:00,
2013-03-12 05:35:00,35.1,31.6,29.72,SW,229,11.5,11.5,87,0.00,CLR,,0.00,0.0,WeatherDisplay:10.37,2013-03-12 09:35:00,
2013-03-12 05:40:00,35.1,31.6,29.72,West,267,8.1,8.1,87,0.00,CLR,,0.00,0.0,WeatherDisplay:10.37,2013-03-12 09:40:00,
2013-03-12 05:45:00,35.0,31.8,29.72,SSW,194,10.4,10.4,88,0.00,CLR,,0.00,0.0,WeatherDisplay:10.37,2013-03-12 09:45:00,
2013-03-12 05:50:00,34.9,31.7,29.72,West,263,11.5,11.5,88,0.00,CLR,,0.00,0.0,WeatherDisplay:10.37,2013-03-12 09:50:00,
2013-03-12 05:55:00,34.8,31.6,29.72,West,273,9.2,9.2,88,0.00,CLR,,0.00,0.0,WeatherDisplay:10.37,2013-03-12 09:55:00,
2013-03-12 06:00:00,34.7,31.8,29.72,SW,219,11.5,11.5,89,0.00,CLR,,0.00,0.0,WeatherDisplay:10.37,2013-03-12 10:00:00,
2013-03-12 06:05:00,34.5,31.9,29.73,WSW,258,10.4,10.4,90,0.00,CLR,,0.00,0.0,WeatherDisplay:10.37,2013-03-12 10:05:00,
2013-03-12 06:10:00,34.3,31.9,29.73,SSW,212,11.5,11.5,91,0.00,CLR,,0.00,0.0,WeatherDisplay:10.37,2013-03-12 10:10:00,
2013-03-12 06:15:00,34.2,31.8,29.73,SW,225,8.1,8.1,91,0.00,CLR,,0.00,0.0,WeatherDisplay:10.37,2013-03-12 10:15:00,
2013-03-12 06:20:00,34.1,31.7,29.73,SSW,198,12.7,12.7,91,0.00,CLR,,0.00,0.0,WeatherDisplay:10.37,2013-03-12 10:20:00,
2013-03-12 06:26:00,34.0,31.9,29.74,WSW,239,9.2,9.2,92,0.00,CLR,,0.00,0.0,WeatherDisplay:10.37,2013-03-12 10:26:00,
2013-03-12 06:31:00,34.0,31.9,29.74,SW,229,9.2,9.2,92,0.00,CLR,,0.00,0.0,WeatherDisplay:10.37,2013-03-12 10:31:00,
2013-03-12 06:36:00,33.9,31.8,29.74,SW,231,8.1,8.1,92,0.00,CLR,,0.00,0.0,WeatherDisplay:10.37,2013-03-12 10:36:00,
2013-03-12 06:41:00,33.9,31.8,29.74,WSW,244,5.8,5.8,92,0.00,CLR,,0.00,0.0,WeatherDisplay:10.37,2013-03-12 10:41:00,
2013-03-12 06:46:00,34.0,31.9,29.75,WSW,242,9.2,9.2,92,0.00,CLR,,0.00,0.0,WeatherDisplay:10.37,2013-03-12 10:46:00,
2013-03-12 06:51:00,34.0,31.6,29.75,WSW,240,8.1,8.1,91,0.00,CLR,,0.00,0.0,WeatherDisplay:10.37,2013-03-12 10:51:00,
2013-03-12 06:56:00,34.1,31.7,29.75,WSW,245,10.4,10.4,91,0.00,CLR,,0.00,0.0,WeatherDisplay:10.37,2013-03-12 10:56:00,
2013-03-12 07:01:00,33.9,31.6,29.75,SW,227,11.5,11.5,91,0.00,CLR,,0.00,0.0,WeatherDisplay:10.37,2013-03-12 11:01:00,
2013-03-12 07:06:00,33.8,31.7,29.76,WNW,299,6.9,6.9,92,0.00,CLR,,0.00,0.0,WeatherDisplay:10.37,2013-03-12 11:06:00,
2013-03-12 07:11:00,33.8,31.7,29.76,West,267,7.0,7.0,92,0.00,CLR,,0.00,0.0,WeatherDisplay:10.37,2013-03-12 11:11:00,
2013-03-12 07:16:00,33.8,31.7,29.76,West,277,9.2,9.2,92,0.00,CLR,,0.00,0.0,WeatherDisplay:10.37,2013-03-12 11:16:00,
2013-03-12 07:21:00,33.8,31.5,29.76,SW,234,13.8,13.8,91,0.00,CLR,,0.00,0.0,WeatherDisplay:10.37,2013-03-12 11:21:00,
2013-03-12 07:26:00,33.8,31.2,29.76,WSW,240,10.4,10.4,90,0.00,CLR,,0.00,0.0,WeatherDisplay:10.37,2013-03-12 11:26:00,
2013-03-12 07:31:00,33.7,31.1,29.76,West,281,12.7,12.7,90,0.00,CLR,,0.00,0.0,WeatherDisplay:10.37,2013-03-12 11:31:00,
2013-03-12 07:36:00,33.6,31.0,29.76,WSW,246,9.2,9.2,90,0.00,CLR,,0.00,0.0,WeatherDisplay:10.37,2013-03-12 11:36:00,
2013-03-12 07:41:00,33.5,30.9,29.76,WSW,242,10.4,10.4,90,0.00,CLR,,0.00,0.0,WeatherDisplay:10.37,2013-03-12 11:41:00,
2013-03-12 07:47:00,33.5,30.9,29.76,WNW,288,8.1,8.1,90,0.00,CLR,,0.00,0.0,WeatherDisplay:10.37,2013-03-12 11:47:00,
2013-03-12 07:52:00,33.5,30.9,29.77,WSW,254,6.9,6.9,90,0.00,CLR,,0.00,0.0,WeatherDisplay:10.37,2013-03-12 11:52:00,
2013-03-12 07:57:00,33.4,31.1,29.77,WSW,257,12.0,12.0,91,0.00,CLR,,0.00,0.0,WeatherDisplay:10.37,2013-03-12 11:57:00,
2013-03-12 08:02:00,33.3,31.0,29.77,West,261,9.2,9.2,91,0.00,CLR,,0.00,5.0,WeatherDisplay:10.37,2013-03-12 12:02:00,
2013-03-12 08:07:00,33.2,30.9,29.77,WSW,254,6.9,6.9,91,0.00,CLR,,0.00,5.0,WeatherDisplay:10.37,2013-03-12 12:07:00,
2013-03-12 08:12:00,33.2,30.6,29.77,SW,232,10.0,10.0,90,0.00,CLR,,0.00,11.0,WeatherDisplay:10.37,2013-03-12 12:12:00,
2013-03-12 08:17:00,33.2,30.3,29.77,WNW,283,17.0,17.0,89,0.00,CLR,,0.00,14.0,WeatherDisplay:10.37,2013-03-12 12:17:00,
2013-03-12 08:22:00,33.3,29.8,29.77,WNW,295,12.7,12.7,87,0.00,CLR,,0.00,18.0,WeatherDisplay:10.37,2013-03-12 12:22:00,
2013-03-12 08:27:00,33.4,29.9,29.78,WSW,248,9.2,9.2,87,0.00,CLR,,0.00,25.0,WeatherDisplay:10.37,2013-03-12 12:27:00,
2013-03-12 08:32:00,33.4,29.9,29.78,WSW,242,9.2,9.2,87,0.00,CLR,,0.00,19.0,WeatherDisplay:10.37,2013-03-12 12:32:00,
2013-03-12 08:37:00,33.5,29.8,29.78,West,269,13.8,13.8,86,0.00,CLR,,0.00,14.0,WeatherDisplay:10.37,2013-03-12 12:37:00,
2013-03-12 08:42:00,33.5,29.8,29.78,WSW,249,4.6,4.6,86,0.00,CLR,,0.00,12.0,WeatherDisplay:10.37,2013-03-12 12:42:00,
2013-03-12 08:47:00,33.5,29.8,29.78,West,261,5.8,5.8,86,0.00,CLR,,0.00,18.0,WeatherDisplay:10.37,2013-03-12 12:47:00,
2013-03-12 08:52:00,33.5,29.8,29.79,WSW,252,8.1,8.1,86,0.00,CLR,,0.00,23.0,WeatherDisplay:10.37,2013-03-12 12:52:00,
2013-03-12 08:57:00,33.6,29.9,29.79,WNW,283,8.0,8.0,86,0.00,CLR,,0.00,25.0,WeatherDisplay:10.37,2013-03-12 12:57:00,
2013-03-12 09:02:00,33.6,29.9,29.79,WSW,241,6.9,6.9,86,0.00,OVC,,0.00,28.0,WeatherDisplay:10.37,2013-03-12 13:02:00,
2013-03-12 09:07:00,33.6,29.9,29.79,WSW,250,12.7,12.7,86,0.00,OVC,,0.00,32.0,WeatherDisplay:10.37,2013-03-12 13:07:00,
2013-03-12 09:12:00,33.7,29.7,29.79,West,267,8.1,8.1,85,0.00,OVC,,0.00,39.0,WeatherDisplay:10.37,2013-03-12 13:12:00,
2013-03-12 09:17:00,33.7,29.7,29.79,WSW,248,11.5,11.5,85,0.00,OVC,,0.00,39.0,WeatherDisplay:10.37,2013-03-12 13:17:00,
2013-03-12 09:22:00,33.7,29.7,29.80,SW,224,8.1,8.1,85,0.00,OVC,,0.00,28.0,WeatherDisplay:10.37,2013-03-12 13:22:00,
2013-03-12 09:27:00,33.7,29.7,29.80,West,265,8.0,8.0,85,0.00,OVC,,0.00,28.0,WeatherDisplay:10.37,2013-03-12 13:27:00,
2013-03-12 09:33:00,33.7,29.7,29.80,West,263,9.2,9.2,85,0.00,OVC,,0.00,30.0,WeatherDisplay:10.37,2013-03-12 13:33:00,
2013-03-12 09:38:00,33.7,29.7,29.80,West,279,12.7,12.7,85,0.00,OVC,,0.00,33.0,WeatherDisplay:10.37,2013-03-12 13:38:00,
2013-03-12 09:43:00,33.7,29.7,29.79,WSW,251,11.5,11.5,85,0.00,OVC,,0.00,35.0,WeatherDisplay:10.37,2013-03-12 13:43:00,
2013-03-12 09:48:00,33.7,30.0,29.80,West,269,8.1,8.1,86,0.00,OVC,,0.00,40.0,WeatherDisplay:10.37,2013-03-12 13:48:00,
2013-03-12 09:53:00,33.7,30.0,29.80,WSW,239,9.0,9.0,86,0.00,OVC,,0.00,60.0,WeatherDisplay:10.37,2013-03-12 13:53:00,
2013-03-12 09:58:00,33.7,30.0,29.80,West,267,9.2,9.2,86,0.00,OVC,,0.00,46.0,WeatherDisplay:10.37,2013-03-12 13:58:00,
2013-03-12 10:03:00,33.7,30.0,29.81,WSW,258,9.0,9.0,86,0.00,OVC,,0.00,44.0,WeatherDisplay:10.37,2013-03-12 14:03:00,
2013-03-12 10:08:00,33.6,30.1,29.81,WSW,255,10.4,10.4,87,0.00,OVC,,0.00,49.0,WeatherDisplay:10.37,2013-03-12 14:08:00,
2013-03-12 10:13:00,33.5,30.0,29.81,West,277,8.1,8.1,87,0.00,OVC,,0.00,91.0,WeatherDisplay:10.37,2013-03-12 14:13:00,
2013-03-12 10:18:00,33.5,30.3,29.81,SW,236,8.1,8.1,88,0.00,OVC,,0.00,146.0,WeatherDisplay:10.37,2013-03-12 14:18:00,
2013-03-12 10:23:00,33.7,30.5,29.81,SW,236,8.1,8.1,88,0.00,OVC,,0.00,169.0,WeatherDisplay:10.37,2013-03-12 14:23:00,
2013-03-12 10:28:00,33.9,30.7,29.81,WSW,242,5.8,5.8,88,0.00,OVC,,0.00,109.0,WeatherDisplay:10.37,2013-03-12 14:28:00,
2013-03-12 10:33:00,33.9,30.2,29.81,WSW,243,11.5,11.5,86,0.00,OVC,,0.00,79.0,WeatherDisplay:10.37,2013-03-12 14:33:00,
2013-03-12 10:38:00,33.8,30.1,29.81,West,263,11.5,11.5,86,0.00,OVC,,0.00,69.0,WeatherDisplay:10.37,2013-03-12 14:38:00,
2013-03-12 10:43:00,33.8,30.1,29.82,SW,235,6.9,6.9,86,0.00,OVC,,0.00,53.0,WeatherDisplay:10.37,2013-03-12 14:43:00,
2013-03-12 10:48:00,33.7,30.2,29.82,WNW,293,10.4,10.4,87,0.00,OVC,,0.00,49.0,WeatherDisplay:10.37,2013-03-12 14:48:00,
2013-03-12 10:53:00,33.5,30.0,29.82,West,267,11.5,11.5,87,0.00,OVC,,0.00,86.0,WeatherDisplay:10.37,2013-03-12 14:53:00,
2013-03-12 10:58:00,33.4,29.9,29.82,West,271,11.5,11.5,87,0.00,OVC,,0.00,72.0,WeatherDisplay:10.37,2013-03-12 14:58:00,
2013-03-12 11:03:00,33.3,29.6,29.82,West,274,13.8,13.8,86,0.00,OVC,,0.00,72.0,WeatherDisplay:10.37,2013-03-12 15:03:00,
2013-03-12 11:08:00,33.3,29.6,29.82,West,260,12.7,12.7,86,0.00,OVC,,0.00,86.0,WeatherDisplay:10.37,2013-03-12 15:08:00,
2013-03-12 11:13:00,33.2,29.5,29.82,West,277,12.7,12.7,86,0.00,OVC,,0.00,109.0,WeatherDisplay:10.37,2013-03-12 15:13:00,
2013-03-12 11:18:00,33.2,29.5,29.82,WSW,257,8.1,8.1,86,0.00,OVC,,0.00,153.0,WeatherDisplay:10.37,2013-03-12 15:18:00,
2013-03-12 11:23:00,33.2,29.2,29.82,West,268,13.8,13.8,85,0.00,OVC,,0.00,172.0,WeatherDisplay:10.37,2013-03-12 15:23:00,
2013-03-12 11:28:00,33.3,29.0,29.83,West,267,13.8,13.8,84,0.00,OVC,,0.00,214.0,WeatherDisplay:10.37,2013-03-12 15:28:00,
2013-03-12 11:33:00,33.5,29.5,29.83,SW,217,11.5,11.5,85,0.00,OVC,,0.00,260.0,WeatherDisplay:10.37,2013-03-12 15:33:00,
2013-03-12 11:39:00,33.8,29.2,29.83,SW,234,11.5,11.5,83,0.00,OVC,,0.00,325.0,WeatherDisplay:10.37,2013-03-12 15:39:00,
2013-03-12 11:44:00,34.2,29.3,29.82,WSW,250,11.5,11.5,82,0.00,OVC,,0.00,374.0,WeatherDisplay:10.37,2013-03-12 15:44:00,
2013-03-12 11:49:00,34.6,29.7,29.83,WSW,245,13.8,13.8,82,0.01,RA,,0.01,325.0,WeatherDisplay:10.37,2013-03-12 15:49:00,
2013-03-12 11:54:00,34.8,29.9,29.83,SW,222,8.1,8.1,82,0.01,RA,,0.01,258.0,WeatherDisplay:10.37,2013-03-12 15:54:00,
2013-03-12 11:59:00,35.0,30.1,29.83,WSW,247,10.4,10.4,82,0.01,OVC,,0.01,318.0,WeatherDisplay:10.37,2013-03-12 15:59:00,
2013-03-12 12:04:00,35.1,29.2,29.83,WNW,288,11.5,11.5,79,0.01,OVC,,0.01,290.0,WeatherDisplay:10.37,2013-03-12 16:04:00,
2013-03-12 12:09:00,35.0,28.8,29.83,West,276,20.7,20.7,78,0.01,OVC,,0.01,288.0,WeatherDisplay:10.37,2013-03-12 16:09:00,
2013-03-12 12:14:00,35.0,28.8,29.83,West,278,19.6,19.6,78,0.01,OVC,,0.01,334.0,WeatherDisplay:10.37,2013-03-12 16:14:00,
2013-03-12 12:19:00,35.4,29.2,29.83,SW,215,10.4,10.4,78,0.01,OVC,,0.01,325.0,WeatherDisplay:10.37,2013-03-12 16:19:00,
2013-03-12 12:24:00,35.7,29.2,29.83,WSW,237,10.4,10.4,77,0.01,OVC,,0.01,232.0,WeatherDisplay:10.37,2013-03-12 16:24:00,
2013-03-12 12:29:00,35.5,28.7,29.83,WSW,254,13.8,13.8,76,0.01,OVC,,0.01,343.0,WeatherDisplay:10.37,2013-03-12 16:29:00,
2013-03-12 12:34:00,35.6,28.5,29.83,WSW,242,12.0,12.0,75,0.01,OVC,,0.01,367.0,WeatherDisplay:10.37,2013-03-12 16:34:00,
2013-03-12 12:39:00,35.6,28.5,29.83,SW,221,16.1,16.1,75,0.01,OVC,,0.01,424.0,WeatherDisplay:10.37,2013-03-12 16:39:00,
2013-03-12 12:44:00,36.3,29.5,29.83,SSE,163,11.5,11.5,76,0.01,OVC,,0.01,721.0,WeatherDisplay:10.37,2013-03-12 16:44:00,
2013-03-12 12:49:00,36.6,28.8,29.83,WSW,252,15.0,15.0,73,0.00,OVC,,0.01,132.0,WeatherDisplay:10.37,2013-03-12 16:49:00,
2013-03-12 12:54:00,36.1,28.9,29.83,WSW,246,6.0,6.0,75,0.00,OVC,,0.01,160.0,WeatherDisplay:10.37,2013-03-12 16:54:00,
2013-03-12 12:59:00,36.0,28.8,29.83,West,277,9.2,9.2,75,0.00,CLR,,0.01,160.0,WeatherDisplay:10.37,2013-03-12 16:59:00,
2013-03-12 13:04:00,35.8,27.7,29.83,West,259,19.6,19.6,72,0.00,CLR,,0.01,204.0,WeatherDisplay:10.37,2013-03-12 17:04:00,
2013-03-12 13:09:00,35.8,27.7,29.83,West,261,15.0,15.0,72,0.00,CLR,,0.01,190.0,WeatherDisplay:10.37,2013-03-12 17:09:00,
2013-03-12 13:14:00,35.9,28.1,29.83,WSW,248,15.0,15.0,73,0.00,CLR,,0.01,146.0,WeatherDisplay:10.37,2013-03-12 17:14:00,
2013-03-12 13:19:00,35.8,27.7,29.83,West,267,11.0,11.0,72,0.00,CLR,,0.01,229.0,WeatherDisplay:10.37,2013-03-12 17:19:00,
2013-03-12 13:24:00,36.0,27.5,29.84,West,263,20.0,20.0,71,0.00,CLR,,0.01,399.0,WeatherDisplay:10.37,2013-03-12 17:24:00,
2013-03-12 13:29:00,36.2,27.4,29.83,SW,222,18.4,18.4,70,0.00,CLR,,0.01,257.0,WeatherDisplay:10.37,2013-03-12 17:29:00,
2013-03-12 13:34:00,36.2,27.7,29.83,WSW,252,15.0,15.0,71,0.00,CLR,,0.01,134.0,WeatherDisplay:10.37,2013-03-12 17:34:00,
2013-03-12 13:39:00,36.2,28.4,29.83,WSW,251,12.7,12.7,73,0.00,CLR,,0.01,332.0,WeatherDisplay:10.37,2013-03-12 17:39:00,
2013-03-12 13:44:00,36.4,28.2,29.83,WSW,246,12.7,12.7,72,0.00,CLR,,0.01,281.0,WeatherDisplay:10.37,2013-03-12 17:44:00,
2013-03-12 13:49:00,36.5,28.3,29.83,WSW,258,15.0,15.0,72,0.00,CLR,,0.01,230.0,WeatherDisplay:10.37,2013-03-12 17:49:00,
2013-03-12 13:54:00,36.3,28.8,29.84,WNW,291,12.7,12.7,74,0.00,CLR,,0.01,281.0,WeatherDisplay:10.37,2013-03-12 17:54:00,
2013-03-12 13:59:00,36.0,28.8,29.84,West,265,12.7,12.7,75,0.00,CLR,,0.01,364.0,WeatherDisplay:10.37,2013-03-12 17:59:00,
2013-03-12 14:04:00,35.9,28.7,29.84,WNW,288,16.1,16.1,75,0.00,CLR,,0.01,316.0,WeatherDisplay:10.37,2013-03-12 18:04:00,
2013-03-12 14:09:00,36.0,29.5,29.84,WSW,250,9.2,9.2,77,0.00,CLR,,0.01,199.0,WeatherDisplay:10.37,2013-03-12 18:09:00,
2013-03-12 14:14:00,35.9,28.4,29.84,West,267,18.4,18.4,74,0.00,CLR,,0.01,163.0,WeatherDisplay:10.37,2013-03-12 18:14:00,
2013-03-12 14:19:00,35.9,28.4,29.83,NW,309,17.3,17.3,74,0.00,CLR,,0.01,345.0,WeatherDisplay:10.37,2013-03-12 18:19:00,
2013-03-12 14:24:00,36.5,28.7,29.83,SW,233,15.0,15.0,73,0.00,CLR,,0.01,536.0,WeatherDisplay:10.37,2013-03-12 18:24:00,
2013-03-12 14:29:00,37.7,30.2,29.83,WSW,246,16.1,16.1,74,0.00,CLR,,0.01,650.0,WeatherDisplay:10.37,2013-03-12 18:29:00,
2013-03-12 14:34:00,38.1,29.9,29.83,WSW,253,18.4,18.4,72,0.00,CLR,,0.01,424.0,WeatherDisplay:10.37,2013-03-12 18:34:00,
2013-03-12 14:39:00,37.9,29.0,29.83,WSW,251,13.8,13.8,70,0.00,CLR,,0.01,279.0,WeatherDisplay:10.37,2013-03-12 18:39:00,
2013-03-12 14:44:00,37.3,28.1,29.83,West,259,16.1,16.1,69,0.00,SCT,,0.01,149.0,WeatherDisplay:10.37,2013-03-12 18:44:00,
2013-03-12 14:49:00,36.7,27.8,29.83,WSW,254,19.6,19.6,70,0.00,FEW,,0.01,218.0,WeatherDisplay:10.37,2013-03-12 18:49:00,
2013-03-12 14:54:00,36.7,28.2,29.83,WSW,243,11.5,11.5,71,0.00,CLR,,0.01,287.0,WeatherDisplay:10.37,2013-03-12 18:54:00,
2013-03-12 14:59:00,37.0,28.5,29.83,West,264,11.5,11.5,71,0.00,CLR,,0.01,283.0,WeatherDisplay:10.37,2013-03-12 18:59:00,
2013-03-12 15:04:00,37.1,28.9,29.83,West,279,11.5,11.5,72,0.00,FEW,,0.01,267.0,WeatherDisplay:10.37,2013-03-12 19:04:00,
2013-03-12 15:09:00,36.9,28.7,29.83,WSW,250,12.7,12.7,72,0.00,CLR,,0.01,353.0,WeatherDisplay:10.37,2013-03-12 19:09:00,
2013-03-12 15:14:00,37.2,28.7,29.83,South,186,13.8,13.8,71,0.00,CLR,,0.01,330.0,WeatherDisplay:10.37,2013-03-12 19:14:00,
2013-03-12 15:19:00,37.1,28.9,29.83,West,269,13.8,13.8,72,0.00,FEW,,0.01,288.0,WeatherDisplay:10.37,2013-03-12 19:19:00,
2013-03-12 15:24:00,36.7,28.5,29.83,WSW,255,13.0,13.0,72,0.00,SCT,,0.01,204.0,WeatherDisplay:10.37,2013-03-12 19:24:00,
2013-03-12 15:29:00,36.5,28.3,29.83,SW,234,13.8,13.8,72,0.00,SCT,,0.01,225.0,WeatherDisplay:10.37,2013-03-12 19:29:00,
2013-03-12 15:34:00,36.4,28.2,29.83,WSW,244,19.6,19.6,72,0.00,BKN,,0.01,192.0,WeatherDisplay:10.37,2013-03-12 19:34:00,
2013-03-12 15:39:00,36.3,28.8,29.83,WSW,254,18.4,18.4,74,0.00,BKN,,0.01,178.0,WeatherDisplay:10.37,2013-03-12 19:39:00,
2013-03-12 15:44:00,36.1,29.3,29.83,WSW,246,13.0,13.0,76,0.00,SCT,,0.01,304.0,WeatherDisplay:10.37,2013-03-12 19:44:00,
2013-03-12 15:49:00,36.3,29.8,29.83,NW,304,14.0,14.0,77,0.00,SCT,,0.01,255.0,WeatherDisplay:10.37,2013-03-12 19:49:00,
2013-03-12 15:54:00,36.0,28.8,29.83,West,259,13.8,13.8,75,0.00,BKN,,0.01,171.0,WeatherDisplay:10.37,2013-03-12 19:54:00,
2013-03-12 15:59:00,35.9,28.7,29.83,WSW,244,18.4,18.4,75,0.00,BKN,,0.01,200.0,WeatherDisplay:10.37,2013-03-12 19:59:00,
2013-03-12 16:04:00,36.0,28.8,29.83,WNW,285,15.0,15.0,75,0.00,BKN,,0.01,239.0,WeatherDisplay:10.37,2013-03-12 20:04:00,
2013-03-12 16:09:00,36.0,28.5,29.83,West,267,13.8,13.8,74,0.00,BKN,,0.01,227.0,WeatherDisplay:10.37,2013-03-12 20:09:00,
2013-03-12 16:14:00,35.9,28.1,29.83,WNW,282,17.3,17.3,73,0.00,BKN,,0.01,185.0,WeatherDisplay:10.37,2013-03-12 20:14:00,
2013-03-12 16:19:00,35.9,27.7,29.83,SW,228,13.0,13.0,72,0.00,BKN,,0.01,148.0,WeatherDisplay:10.37,2013-03-12 20:19:00,
2013-03-12 16:24:00,35.8,27.7,29.83,WNW,284,16.1,16.1,72,0.00,BKN,,0.01,139.0,WeatherDisplay:10.37,2013-03-12 20:24:00,
2013-03-12 16:29:00,35.7,27.9,29.84,WSW,246,13.8,13.8,73,0.00,BKN,,0.01,116.0,WeatherDisplay:10.37,2013-03-12 20:29:00,
2013-03-12 16:34:00,35.6,28.5,29.84,WSW,243,9.2,9.2,75,0.00,BKN,,0.01,118.0,WeatherDisplay:10.37,2013-03-12 20:34:00,
2013-03-12 16:39:00,35.6,28.1,29.84,SW,234,18.4,18.4,74,0.00,BKN,,0.01,79.0,WeatherDisplay:10.37,2013-03-12 20:39:00,
2013-03-12 16:44:00,35.5,27.7,29.84,SW,230,12.7,12.7,73,0.00,BKN,,0.01,113.0,WeatherDisplay:10.37,2013-03-12 20:44:00,
2013-03-12 16:49:00,35.5,28.0,29.84,SW,217,10.4,10.4,74,0.00,BKN,,0.01,113.0,WeatherDisplay:10.37,2013-03-12 20:49:00,
2013-03-12 16:54:00,35.5,28.0,29.84,SW,234,15.0,15.0,74,0.00,BKN,,0.01,88.0,WeatherDisplay:10.37,2013-03-12 20:54:00,
2013-03-12 16:59:00,35.3,27.8,29.84,WSW,242,18.4,18.4,74,0.00,BKN,,0.01,58.0,WeatherDisplay:10.37,2013-03-12 20:59:00,
2013-03-12 17:04:00,35.0,27.9,29.85,WSW,255,16.1,16.1,75,0.00,BKN,,0.01,39.0,WeatherDisplay:10.37,2013-03-12 21:04:00,
2013-03-12 17:09:00,34.8,28.0,29.85,WSW,258,15.0,15.0,76,0.00,BKN,,0.01,39.0,WeatherDisplay:10.37,2013-03-12 21:09:00,
2013-03-12 17:14:00,34.6,28.4,29.85,SW,229,12.7,12.7,78,0.00,BKN,,0.01,39.0,WeatherDisplay:10.37,2013-03-12 21:14:00,
2013-03-12 17:19:00,34.5,28.3,29.85,WSW,242,16.1,16.1,78,0.00,BKN,,0.01,44.0,WeatherDisplay:10.37,2013-03-12 21:19:00,
2013-03-12 17:24:00,34.3,28.2,29.85,West,261,13.8,13.8,78,0.00,BKN,,0.01,40.0,WeatherDisplay:10.37,2013-03-12 21:24:00,
2013-03-12 17:29:00,34.3,28.5,29.85,West,265,13.8,13.8,79,0.00,BKN,,0.01,42.0,WeatherDisplay:10.37,2013-03-12 21:29:00,
2013-03-12 17:34:00,34.2,28.4,29.85,WSW,257,15.0,15.0,79,0.00,BKN,,0.01,44.0,WeatherDisplay:10.37,2013-03-12 21:34:00,
2013-03-12 17:39:00,34.1,28.3,29.86,WSW,249,16.1,16.1,79,0.00,BKN,,0.01,58.0,WeatherDisplay:10.37,2013-03-12 21:39:00,
2013-03-12 17:44:00,34.0,28.2,29.86,WSW,242,11.5,11.5,79,0.00,BKN,,0.01,56.0,WeatherDisplay:10.37,2013-03-12 21:44:00,
2013-03-12 17:49:00,34.1,28.0,29.86,West,269,8.1,8.1,78,0.00,BKN,,0.01,54.0,WeatherDisplay:10.37,2013-03-12 21:49:00,
2013-03-12 17:54:00,34.1,28.3,29.86,WNW,285,11.5,11.5,79,0.00,BKN,,0.01,70.0,WeatherDisplay:10.37,2013-03-12 21:54:00,
2013-03-12 17:59:00,34.0,27.9,29.86,WSW,238,12.7,12.7,78,0.00,BKN,,0.01,81.0,WeatherDisplay:10.37,2013-03-12 21:59:00,
2013-03-12 18:04:00,34.1,27.9,29.86,WSW,247,8.0,12.0,78,0.00,BKN,,0.01,51.0,WeatherDisplay:10.37,2013-03-12 22:04:00,
2013-03-12 18:09:00,34.0,27.9,29.86,WSW,252,12.0,12.0,78,0.00,BKN,,0.01,54.0,WeatherDisplay:10.37,2013-03-12 22:09:00,
2013-03-12 18:14:00,34.0,27.9,29.86,WSW,247,7.0,12.0,78,0.00,BKN,,0.01,53.0,WeatherDisplay:10.37,2013-03-12 22:14:00,
2013-03-12 18:19:00,34.1,27.9,29.86,WSW,246,9.0,20.0,78,0.00,CLR,,0.01,35.0,WeatherDisplay:10.37,2013-03-12 22:19:00,
2013-03-12 18:24:00,34.0,27.6,29.87,WSW,244,8.0,17.0,77,0.00,CLR,,0.01,21.0,WeatherDisplay:10.37,2013-03-12 22:24:00,
2013-03-12 18:29:00,33.9,27.8,29.87,WSW,243,12.0,20.0,78,0.00,CLR,,0.01,21.0,WeatherDisplay:10.37,2013-03-12 22:29:00,
2013-03-12 18:34:00,33.7,27.6,29.87,WSW,246,10.0,18.0,78,0.00,CLR,,0.01,18.0,WeatherDisplay:10.37,2013-03-12 22:34:00,
2013-03-12 18:40:00,33.5,27.7,29.87,WSW,246,13.8,13.8,79,0.00,CLR,,0.01,16.0,WeatherDisplay:10.37,2013-03-12 22:40:00,
2013-03-12 18:45:00,33.4,27.6,29.88,West,271,9.2,9.2,79,0.00,CLR,,0.01,14.0,WeatherDisplay:10.37,2013-03-12 22:45:00,
2013-03-12 18:50:00,33.4,27.0,29.88,WSW,247,19.6,19.6,77,0.00,CLR,,0.01,16.0,WeatherDisplay:10.37,2013-03-12 22:50:00,
2013-03-12 18:55:00,33.4,26.6,29.88,WSW,244,12.7,12.7,76,0.00,CLR,,0.01,16.0,WeatherDisplay:10.37,2013-03-12 22:55:00,
2013-03-12 19:00:00,33.4,26.3,29.88,WSW,250,11.5,11.5,75,0.00,CLR,,0.01,12.0,WeatherDisplay:10.37,2013-03-12 23:00:00,
2013-03-12 19:05:00,33.5,26.7,29.88,West,269,10.4,10.4,76,0.00,CLR,,0.01,5.0,WeatherDisplay:10.37,2013-03-12 23:05:00,
2013-03-12 19:10:00,33.4,26.3,29.88,West,259,15.0,15.0,75,0.00,CLR,,0.01,5.0,WeatherDisplay:10.37,2013-03-12 23:10:00,
2013-03-12 19:15:00,33.2,26.1,29.88,WSW,244,14.0,14.0,75,0.00,CLR,,0.01,0.0,WeatherDisplay:10.37,2013-03-12 23:15:00,
2013-03-12 19:20:00,33.1,26.0,29.89,WSW,246,10.4,10.4,75,0.00,CLR,,0.01,0.0,WeatherDisplay:10.37,2013-03-12 23:20:00,
2013-03-12 19:25:00,33.0,26.3,29.88,West,275,9.2,9.2,76,0.00,CLR,,0.01,9.0,WeatherDisplay:10.37,2013-03-12 23:25:00,
2013-03-12 19:30:00,32.9,25.5,29.88,West,272,12.0,12.0,74,0.00,CLR,,0.01,5.0,WeatherDisplay:10.37,2013-03-12 23:30:00,
2013-03-12 19:35:00,33.0,25.3,29.88,West,262,10.4,10.4,73,0.00,CLR,,0.01,0.0,WeatherDisplay:10.37,2013-03-12 23:35:00,
2013-03-12 19:40:00,33.0,25.0,29.88,West,269,11.5,11.5,72,0.00,CLR,,0.01,0.0,WeatherDisplay:10.37,2013-03-12 23:40:00,
2013-03-12 19:45:00,33.0,25.0,29.89,SW,221,6.9,6.9,72,0.00,CLR,,0.01,0.0,WeatherDisplay:10.37,2013-03-12 23:45:00,
2013-03-12 19:50:00,33.0,25.0,29.89,WSW,254,6.9,6.9,72,0.00,CLR,,0.01,0.0,WeatherDisplay:10.37,2013-03-12 23:50:00,
2013-03-12 19:55:00,33.0,25.0,29.89,WSW,242,10.0,10.0,72,0.00,CLR,,0.01,0.0,WeatherDisplay:10.37,2013-03-12 23:55:00,
2013-03-12 20:00:00,32.9,24.9,29.89,WSW,242,11.5,11.5,72,0.00,CLR,,0.01,0.0,WeatherDisplay:10.37,2013-03-13 00:00:00,
2013-03-12 20:05:00,32.9,25.2,29.89,West,270,10.4,10.4,73,0.00,CLR,,0.01,0.0,WeatherDisplay:10.37,2013-03-13 00:05:00,
2013-03-12 20:10:00,32.8,25.1,29.89,WSW,240,11.5,11.5,73,0.00,CLR,,0.01,0.0,WeatherDisplay:10.37,2013-03-13 00:10:00,
2013-03-12 20:15:00,32.8,25.1,29.89,WSW,240,9.2,9.2,73,0.00,CLR,,0.01,0.0,WeatherDisplay:10.37,2013-03-13 00:15:00,
2013-03-12 20:20:00,32.7,25.3,29.89,WSW,257,11.5,11.5,74,0.00,CLR,,0.01,0.0,WeatherDisplay:10.37,2013-03-13 00:20:00,
2013-03-12 20:25:00,32.6,25.2,29.90,WSW,237,12.7,12.7,74,0.00,CLR,,0.01,0.0,WeatherDisplay:10.37,2013-03-13 00:25:00,
2013-03-12 20:30:00,32.5,25.5,29.90,WSW,248,11.5,11.5,75,0.00,CLR,,0.01,0.0,WeatherDisplay:10.37,2013-03-13 00:30:00,
2013-03-12 20:35:00,32.4,25.7,29.90,SSW,196,9.2,9.2,76,0.00,CLR,,0.01,0.0,WeatherDisplay:10.37,2013-03-13 00:35:00,
2013-03-12 20:40:00,32.4,26.0,29.90,WSW,248,11.5,11.5,77,0.00,CLR,,0.01,0.0,WeatherDisplay:10.37,2013-03-13 00:40:00,
2013-03-12 20:45:00,32.3,26.2,29.90,WSW,252,11.0,11.0,78,0.00,CLR,,0.01,0.0,WeatherDisplay:10.37,2013-03-13 00:45:00,
2013-03-12 20:50:00,32.2,26.4,29.90,West,259,8.1,8.1,79,0.00,CLR,,0.01,0.0,WeatherDisplay:10.37,2013-03-13 00:50:00,
2013-03-12 20:55:00,32.1,26.6,29.90,WSW,246,13.8,13.8,80,0.00,CLR,,0.01,0.0,WeatherDisplay:10.37,2013-03-13 00:55:00,
2013-03-12 21:00:00,31.9,27.0,29.90,WSW,249,10.4,10.4,82,0.00,CLR,,0.01,0.0,WeatherDisplay:10.37,2013-03-13 01:00:00,
2013-03-12 21:05:00,31.7,27.1,29.90,WSW,238,11.5,11.5,83,0.00,CLR,,0.01,0.0,WeatherDisplay:10.37,2013-03-13 01:05:00,
2013-03-12 21:10:00,31.6,27.0,29.90,SW,234,8.1,8.1,83,0.00,CLR,,0.01,0.0,WeatherDisplay:10.37,2013-03-13 01:10:00,
2013-03-12 21:16:00,31.6,27.0,29.90,SW,236,9.2,9.2,83,0.00,CLR,,0.01,0.0,WeatherDisplay:10.37,2013-03-13 01:16:00,
2013-03-12 21:21:00,31.5,27.2,29.90,SW,229,10.4,10.4,84,0.00,CLR,,0.01,0.0,WeatherDisplay:10.37,2013-03-13 01:21:00,
2013-03-12 21:26:00,31.3,27.6,29.90,WSW,254,4.6,4.6,86,0.00,CLR,,0.01,0.0,WeatherDisplay:10.37,2013-03-13 01:26:00,
2013-03-12 21:31:00,31.1,27.7,29.90,West,269,3.5,3.5,87,0.00,CLR,,0.01,0.0,WeatherDisplay:10.37,2013-03-13 01:31:00,
2013-03-12 21:36:00,31.0,27.6,29.91,West,269,5.8,5.8,87,0.00,CLR,,0.01,0.0,WeatherDisplay:10.37,2013-03-13 01:36:00,
2013-03-12 21:41:00,30.8,27.7,29.90,West,260,3.5,3.5,88,0.00,CLR,,0.01,0.0,WeatherDisplay:10.37,2013-03-13 01:41:00,
2013-03-12 21:46:00,30.8,27.7,29.90,West,272,5.8,5.8,88,0.00,CLR,,0.01,0.0,WeatherDisplay:10.37,2013-03-13 01:46:00,
2013-03-12 21:51:00,30.8,27.7,29.90,WSW,257,3.5,3.5,88,0.00,CLR,,0.01,0.0,WeatherDisplay:10.37,2013-03-13 01:51:00,
2013-03-12 21:56:00,30.8,27.4,29.90,SW,229,4.6,4.6,87,0.00,CLR,,0.01,0.0,WeatherDisplay:10.37,2013-03-13 01:56:00,
2013-03-12 22:01:00,30.8,27.4,29.90,WSW,238,5.0,5.0,87,0.00,CLR,,0.01,0.0,WeatherDisplay:10.37,2013-03-13 02:01:00,
2013-03-12 22:06:00,30.7,27.3,29.90,WSW,237,3.5,3.5,87,0.00,CLR,,0.01,0.0,WeatherDisplay:10.37,2013-03-13 02:06:00,
2013-03-12 22:11:00,30.6,26.9,29.90,WSW,250,4.6,4.6,86,0.00,CLR,,0.01,0.0,WeatherDisplay:10.37,2013-03-13 02:11:00,
2013-03-12 22:16:00,30.6,26.9,29.90,WSW,242,8.1,8.1,86,0.00,CLR,,0.01,0.0,WeatherDisplay:10.37,2013-03-13 02:16:00,
2013-03-12 22:21:00,30.6,26.9,29.90,SW,229,3.5,3.5,86,0.00,CLR,,0.01,0.0,WeatherDisplay:10.37,2013-03-13 02:21:00,
2013-03-12 22:26:00,30.6,26.9,29.90,WSW,241,5.0,5.0,86,0.00,CLR,,0.01,0.0,WeatherDisplay:10.37,2013-03-13 02:26:00,
2013-03-12 22:31:00,30.7,27.0,29.90,SW,234,4.0,4.0,86,0.00,CLR,,0.01,0.0,WeatherDisplay:10.37,2013-03-13 02:31:00,
2013-03-12 22:36:00,30.8,26.8,29.90,WSW,242,4.6,4.6,85,0.00,CLR,,0.01,0.0,WeatherDisplay:10.37,2013-03-13 02:36:00,
2013-03-12 22:42:00,30.8,26.8,29.90,West,267,8.1,8.1,85,0.00,CLR,,0.01,0.0,WeatherDisplay:10.37,2013-03-13 02:42:00,
2013-03-12 22:47:00,30.8,26.5,29.90,SW,217,10.4,10.4,84,0.00,CLR,,0.01,0.0,WeatherDisplay:10.37,2013-03-13 02:47:00,
2013-03-12 22:52:00,30.8,26.5,29.90,WSW,244,6.0,6.0,84,0.00,CLR,,0.01,0.0,WeatherDisplay:10.37,2013-03-13 02:52:00,
2013-03-12 22:57:00,30.7,26.4,29.90,WSW,238,6.9,6.9,84,0.00,CLR,,0.01,0.0,WeatherDisplay:10.37,2013-03-13 02:57:00,
2013-03-12 23:02:00,30.8,26.2,29.90,WSW,241,5.8,5.8,83,0.00,CLR,,0.01,0.0,WeatherDisplay:10.37,2013-03-13 03:02:00,
2013-03-12 23:07:00,30.8,26.5,29.90,SW,221,5.8,5.8,84,0.00,CLR,,0.01,0.0,WeatherDisplay:10.37,2013-03-13 03:07:00,
2013-03-12 23:12:00,30.8,26.5,29.90,SW,219,4.6,4.6,84,0.00,CLR,,0.01,0.0,WeatherDisplay:10.37,2013-03-13 03:12:00,
2013-03-12 23:17:00,30.8,26.5,29.90,WSW,238,5.0,5.0,84,0.00,CLR,,0.01,0.0,WeatherDisplay:10.37,2013-03-13 03:17:00,
2013-03-12 23:22:00,30.8,26.5,29.90,WSW,240,3.5,3.5,84,0.00,CLR,,0.01,0.0,WeatherDisplay:10.37,2013-03-13 03:22:00,
2013-03-12 23:27:00,30.8,26.8,29.90,WSW,242,5.0,5.0,85,0.00,CLR,,0.01,0.0,WeatherDisplay:10.37,2013-03-13 03:27:00,
2013-03-12 23:32:00,30.8,26.8,29.90,WSW,250,3.5,3.5,85,0.00,CLR,,0.01,0.0,WeatherDisplay:10.37,2013-03-13 03:32:00,
2013-03-12 23:37:00,30.8,26.8,29.90,SW,221,3.5,3.5,85,0.00,CLR,,0.01,0.0,WeatherDisplay:10.37,2013-03-13 03:37:00,
2013-03-12 23:42:00,30.7,26.7,29.90,SW,234,5.8,5.8,85,0.00,CLR,,0.01,0.0,WeatherDisplay:10.37,2013-03-13 03:42:00,
2013-03-12 23:47:00,30.7,26.4,29.90,SW,221,5.8,5.8,84,0.00,CLR,,0.01,0.0,WeatherDisplay:10.37,2013-03-13 03:47:00,
2013-03-12 23:52:00,30.8,26.5,29.90,SSW,213,3.5,3.5,84,0.00,CLR,,0.01,0.0,WeatherDisplay:10.37,2013-03-13 03:52:00,
2013-03-12 23:58:00,30.8,26.5,29.90,WSW,240,4.6,4.6,84,0.00,CLR,,0.01,0.0,WeatherDisplay:10.37,2013-03-13 03:58:00,